createdAt,value
2023-08-13T00:00:43.086Z,100.00
2023-08-13T00:03:09.730Z,100.00
2023-08-13T00:05:36.488Z,100.00
2023-08-13T00:08:02.925Z,100.00
2023-08-13T00:10:29.395Z,100.00
2023-08-13T00:12:55.906Z,100.00
2023-08-13T00:15:22.620Z,100.00
2023-08-13T00:17:49.083Z,100.00
2023-08-13T00:20:16.202Z,100.00
2023-08-13T00:22:42.892Z,100.00
2023-08-13T00:25:09.711Z,100.00
2023-08-13T00:27:36.185Z,100.00
2023-08-13T00:30:02.687Z,100.00
2023-08-13T00:32:29.174Z,100.00
2023-08-13T00:34:55.854Z,100.00
2023-08-13T00:37:22.356Z,100.00
2023-08-13T00:39:48.837Z,100.00
2023-08-13T00:42:15.583Z,100.00
2023-08-13T00:44:42.280Z,100.00
2023-08-13T00:47:10.503Z,100.00
2023-08-13T00:49:36.984Z,100.00
2023-08-13T00:52:03.607Z,100.00
2023-08-13T00:54:30.918Z,100.00
2023-08-13T00:56:57.640Z,100.00
2023-08-13T00:59:25.060Z,100.00
2023-08-13T01:01:51.991Z,100.00
2023-08-13T01:04:18.830Z,100.00
2023-08-13T01:07:12.978Z,100.00
2023-08-13T01:09:57.494Z,100.00
2023-08-13T01:12:38.703Z,100.00
2023-08-13T01:15:12.679Z,100.00
2023-08-13T01:17:40.834Z,100.00
2023-08-13T01:20:10.542Z,100.00
2023-08-13T01:22:46.698Z,100.00
2023-08-13T01:25:14.594Z,100.00
2023-08-13T01:27:57.907Z,100.00
2023-08-13T01:30:34.205Z,100.00
2023-08-13T01:33:04.478Z,100.00
2023-08-13T01:35:32.165Z,100.00
2023-08-13T01:38:00.827Z,100.00
2023-08-13T01:40:27.961Z,100.00
2023-08-13T01:42:54.597Z,100.00
2023-08-13T01:45:21.150Z,100.00
2023-08-13T01:47:48.477Z,100.00
2023-08-13T01:50:15.096Z,100.00
2023-08-13T01:52:41.529Z,100.00
2023-08-13T01:55:08.787Z,100.00
2023-08-13T01:57:35.630Z,100.00
2023-08-13T02:00:02.123Z,100.00
2023-08-13T02:02:28.758Z,100.00
2023-08-13T02:04:55.352Z,100.00
2023-08-13T02:07:21.837Z,100.00
2023-08-13T02:09:48.334Z,100.00
2023-08-13T02:12:14.867Z,100.00
2023-08-13T02:14:41.714Z,100.00
2023-08-13T02:17:13.756Z,100.00
2023-08-13T02:19:41.254Z,100.00
2023-08-13T02:22:08.657Z,100.00
2023-08-13T02:24:35.132Z,100.00
2023-08-13T02:27:01.609Z,100.00
2023-08-13T02:29:28.274Z,100.00
2023-08-13T02:31:54.820Z,100.00
2023-08-13T02:34:23.523Z,100.00
2023-08-13T02:36:50.153Z,100.00
2023-08-13T02:39:16.575Z,100.00
2023-08-13T02:41:43.040Z,100.00
2023-08-13T02:44:09.554Z,100.00
2023-08-13T02:46:36.109Z,100.00
2023-08-13T02:49:02.650Z,100.00
2023-08-13T02:51:29.122Z,100.00
2023-08-13T02:53:55.708Z,100.00
2023-08-13T02:56:22.185Z,100.00
2023-08-13T02:58:48.676Z,100.00
2023-08-13T03:01:15.235Z,100.00
2023-08-13T03:03:52.084Z,100.00
2023-08-13T03:06:23.584Z,100.00
2023-08-13T03:08:50.161Z,100.00
2023-08-13T03:11:16.736Z,100.00
2023-08-13T03:13:43.635Z,100.00
2023-08-13T03:16:10.294Z,100.00
2023-08-13T03:18:37.105Z,100.00
2023-08-13T03:21:03.617Z,100.00
2023-08-13T03:23:30.475Z,100.00
2023-08-13T03:25:57.131Z,100.00
2023-08-13T03:28:23.966Z,100.00
2023-08-13T03:30:50.443Z,100.00
2023-08-13T03:33:16.897Z,100.00
2023-08-13T03:35:43.975Z,100.00
2023-08-13T03:38:10.656Z,100.00
2023-08-13T03:40:40.960Z,100.00
2023-08-13T03:43:07.512Z,100.00
2023-08-13T03:45:34.048Z,100.00
2023-08-13T03:48:00.643Z,100.00
2023-08-13T03:50:27.186Z,100.00
2023-08-13T03:52:53.644Z,100.00
2023-08-13T03:55:20.088Z,100.00
2023-08-13T03:57:46.577Z,100.00
2023-08-13T04:00:13.619Z,100.00
2023-08-13T04:02:40.721Z,100.00
2023-08-13T04:05:07.992Z,100.00
2023-08-13T04:07:34.467Z,100.00
2023-08-13T04:10:00.948Z,100.00
2023-08-13T04:12:27.433Z,100.00
2023-08-13T04:14:53.859Z,100.00
2023-08-13T04:17:20.321Z,100.00
2023-08-13T04:19:46.782Z,100.00
2023-08-13T04:22:13.969Z,100.00
2023-08-13T04:24:41.076Z,100.00
2023-08-13T04:27:07.600Z,100.00
2023-08-13T04:29:34.115Z,100.00
2023-08-13T04:32:00.603Z,100.00
2023-08-13T04:34:27.173Z,100.00
2023-08-13T04:36:53.632Z,100.00
2023-08-13T04:39:20.118Z,100.00
2023-08-13T04:41:46.625Z,100.00
2023-08-13T04:44:13.096Z,100.00
2023-08-13T04:46:39.771Z,100.00
2023-08-13T04:49:06.563Z,100.00
2023-08-13T04:51:32.995Z,100.00
2023-08-13T04:53:59.468Z,100.00
2023-08-13T04:56:25.954Z,100.00
2023-08-13T04:58:52.535Z,100.00
2023-08-13T05:01:19.120Z,100.00
2023-08-13T05:03:45.908Z,100.00
2023-08-13T05:06:12.447Z,100.00
2023-08-13T05:08:38.999Z,100.00
2023-08-13T05:11:05.902Z,100.00
2023-08-13T05:13:32.390Z,100.00
2023-08-13T05:15:58.917Z,100.00
2023-08-13T05:19:11.901Z,100.00
2023-08-13T05:21:43.565Z,100.00
2023-08-13T05:24:10.061Z,100.00
2023-08-13T05:26:36.673Z,100.00
2023-08-13T05:29:04.271Z,100.00
2023-08-13T05:31:31.326Z,100.00
2023-08-13T05:34:01.020Z,100.00
2023-08-13T05:36:27.668Z,100.00
2023-08-13T05:38:54.234Z,98.65
2023-08-13T05:41:20.791Z,98.49
2023-08-13T05:43:47.289Z,98.72
2023-08-13T05:46:13.946Z,97.93
2023-08-13T05:48:40.759Z,97.02
2023-08-13T05:51:07.261Z,96.47
2023-08-13T05:53:33.729Z,94.62
2023-08-13T05:56:01.263Z,93.28
2023-08-13T05:58:27.776Z,92.92
2023-08-13T06:00:54.249Z,92.25
2023-08-13T06:03:20.857Z,91.70
2023-08-13T06:05:48.624Z,91.14
2023-08-13T06:08:15.235Z,90.87
2023-08-13T06:10:41.815Z,90.33
2023-08-13T06:13:08.313Z,88.15
2023-08-13T06:15:34.778Z,87.57
2023-08-13T06:18:01.344Z,87.06
2023-08-13T06:20:27.973Z,86.12
2023-08-13T06:22:54.660Z,86.20
2023-08-13T06:25:21.267Z,84.86
2023-08-13T06:27:47.742Z,84.65
2023-08-13T06:30:14.273Z,85.86
2023-08-13T06:32:41.066Z,86.13
2023-08-13T06:35:07.905Z,85.50
2023-08-13T06:37:38.982Z,84.55
2023-08-13T06:40:13.777Z,85.24
2023-08-13T06:42:40.229Z,84.29
2023-08-13T06:45:07.551Z,84.62
2023-08-13T06:47:34.109Z,84.15
2023-08-13T06:50:00.611Z,83.64
2023-08-13T06:52:27.238Z,83.36
2023-08-13T06:54:53.736Z,81.42
2023-08-13T06:57:20.199Z,80.74
2023-08-13T06:59:46.760Z,79.73
2023-08-13T07:02:13.467Z,79.76
2023-08-13T07:04:40.277Z,78.42
2023-08-13T07:07:07.229Z,78.71
2023-08-13T07:09:35.066Z,79.04
2023-08-13T07:12:02.075Z,78.56
2023-08-13T07:14:28.643Z,77.20
2023-08-13T07:16:55.060Z,75.85
2023-08-13T07:19:21.679Z,73.80
2023-08-13T07:21:48.140Z,73.83
2023-08-13T07:24:14.678Z,73.75
2023-08-13T07:26:41.186Z,73.77
2023-08-13T07:29:08.662Z,73.29
2023-08-13T07:31:38.979Z,73.40
2023-08-13T07:34:05.946Z,73.30
2023-08-13T07:36:32.779Z,74.34
2023-08-13T07:38:59.380Z,73.88
2023-08-13T07:41:26.209Z,73.06
2023-08-13T07:43:53.304Z,72.96
2023-08-13T07:46:20.381Z,72.90
2023-08-13T07:48:46.936Z,71.24
2023-08-13T07:51:13.428Z,70.37
2023-08-13T07:53:39.947Z,71.09
2023-08-13T07:56:06.533Z,72.46
2023-08-13T07:58:33.146Z,72.32
2023-08-13T08:00:59.683Z,70.45
2023-08-13T08:03:26.354Z,68.82
2023-08-13T08:05:54.056Z,68.53
2023-08-13T08:08:20.594Z,67.27
2023-08-13T08:10:47.070Z,67.15
2023-08-13T08:13:13.852Z,67.39
2023-08-13T08:15:40.701Z,67.79
2023-08-13T08:18:07.695Z,68.45
2023-08-13T08:20:34.397Z,67.26
2023-08-13T08:23:00.973Z,67.35
2023-08-13T08:25:27.796Z,67.60
2023-08-13T08:27:54.558Z,68.11
2023-08-13T08:30:21.299Z,66.35
2023-08-13T08:32:48.112Z,64.89
2023-08-13T08:35:15.256Z,64.75
2023-08-13T08:37:41.789Z,64.32
2023-08-13T08:40:08.823Z,65.29
2023-08-13T08:42:37.797Z,65.92
2023-08-13T08:45:05.664Z,66.29
2023-08-13T08:47:34.698Z,66.25
2023-08-13T08:50:05.092Z,64.92
2023-08-13T08:52:35.453Z,63.59
2023-08-13T08:55:04.020Z,63.97
2023-08-13T08:57:30.551Z,63.98
2023-08-13T08:59:57.122Z,63.47
2023-08-13T09:02:23.968Z,61.27
2023-08-13T09:04:50.598Z,63.35
2023-08-13T09:07:17.092Z,63.19
2023-08-13T09:09:45.460Z,62.09
2023-08-13T09:12:11.998Z,62.59
2023-08-13T09:14:38.600Z,61.85
2023-08-13T09:17:05.221Z,60.95
2023-08-13T09:19:33.446Z,61.01
2023-08-13T09:22:04.572Z,60.33
2023-08-13T09:24:34.013Z,59.49
2023-08-13T09:27:01.810Z,59.85
2023-08-13T09:29:30.468Z,59.52
2023-08-13T09:32:00.886Z,60.37
2023-08-13T09:34:28.765Z,58.95
2023-08-13T09:36:56.817Z,57.58
2023-08-13T09:39:24.829Z,56.57
2023-08-13T09:41:52.688Z,54.86
2023-08-13T09:44:21.334Z,55.00
2023-08-13T09:47:01.989Z,54.59
2023-08-13T09:49:31.603Z,54.26
2023-08-13T09:52:02.336Z,53.44
2023-08-13T09:54:37.847Z,52.97
2023-08-13T09:57:07.962Z,52.48
2023-08-13T09:59:36.061Z,52.35
2023-08-13T10:02:07.704Z,51.36
2023-08-13T10:04:39.229Z,50.14
2023-08-13T10:07:06.823Z,50.59
2023-08-13T10:09:34.819Z,49.98
2023-08-13T10:12:02.508Z,49.82
2023-08-13T10:14:29.940Z,50.10
2023-08-13T10:16:56.560Z,49.87
2023-08-13T10:19:35.524Z,50.05
2023-08-13T10:22:02.603Z,48.40
2023-08-13T10:24:30.361Z,48.03
2023-08-13T10:26:59.254Z,48.32
2023-08-13T10:29:35.006Z,48.59
2023-08-13T10:32:10.924Z,47.58
2023-08-13T10:34:41.032Z,47.03
2023-08-13T10:37:19.550Z,47.48
2023-08-13T10:39:48.076Z,48.80
2023-08-13T10:42:38.968Z,48.65
2023-08-13T10:45:10.979Z,47.95
2023-08-13T10:47:48.496Z,48.85
2023-08-13T10:50:26.902Z,50.54
2023-08-13T10:52:55.724Z,48.25
2023-08-13T10:55:25.938Z,48.40
2023-08-13T10:57:54.008Z,47.31
2023-08-13T11:00:25.466Z,46.67
2023-08-13T11:02:53.776Z,46.98
2023-08-13T11:05:22.200Z,47.41
2023-08-13T11:07:48.973Z,46.25
2023-08-13T11:10:20.355Z,45.77
2023-08-13T11:12:48.710Z,47.12
2023-08-13T11:15:16.622Z,47.94
2023-08-13T11:17:48.162Z,46.70
2023-08-13T11:20:18.367Z,45.57
2023-08-13T11:22:45.101Z,45.23
2023-08-13T11:25:12.057Z,44.96
2023-08-13T11:27:39.819Z,44.56
2023-08-13T11:30:09.464Z,43.80
2023-08-13T11:32:40.009Z,44.07
2023-08-13T11:35:10.749Z,44.31
2023-08-13T11:37:38.412Z,44.00
2023-08-13T11:40:07.446Z,43.29
2023-08-13T11:42:34.366Z,44.41
2023-08-13T11:45:04.428Z,44.69
2023-08-13T11:47:31.002Z,43.58
2023-08-13T11:50:00.111Z,44.30
2023-08-13T11:52:26.770Z,44.55
2023-08-13T11:54:53.525Z,43.35
2023-08-13T11:57:21.189Z,44.16
2023-08-13T11:59:49.947Z,44.39
2023-08-13T12:02:19.247Z,44.86
2023-08-13T12:04:48.204Z,45.12
2023-08-13T12:07:14.819Z,43.94
2023-08-13T12:09:41.337Z,43.76
2023-08-13T12:12:08.063Z,43.36
2023-08-13T12:14:42.721Z,44.85
2023-08-13T12:17:09.154Z,44.15
2023-08-13T12:19:35.640Z,42.90
2023-08-13T12:22:02.101Z,43.55
2023-08-13T12:24:28.647Z,43.24
2023-08-13T12:26:55.251Z,43.49
2023-08-13T12:29:21.769Z,42.84
2023-08-13T12:31:48.441Z,42.89
2023-08-13T12:34:14.866Z,42.80
2023-08-13T12:36:41.326Z,43.69
2023-08-13T12:39:07.888Z,43.11
2023-08-13T12:41:39.835Z,43.91
2023-08-13T12:44:08.333Z,44.53
2023-08-13T12:46:34.850Z,43.70
2023-08-13T12:49:01.392Z,44.58
2023-08-13T12:51:28.035Z,45.42
2023-08-13T12:53:54.472Z,44.48
2023-08-13T12:56:21.805Z,45.76
2023-08-13T12:58:49.510Z,45.57
2023-08-13T13:01:16.011Z,44.24
2023-08-13T13:03:42.553Z,45.12
2023-08-13T13:06:09.022Z,45.59
2023-08-13T13:08:35.466Z,46.61
2023-08-13T13:11:02.596Z,45.13
2023-08-13T13:13:29.537Z,45.42
2023-08-13T13:15:56.161Z,44.84
2023-08-13T13:18:22.805Z,43.47
2023-08-13T13:20:49.544Z,44.53
2023-08-13T13:23:16.017Z,43.75
2023-08-13T13:25:42.476Z,45.06
2023-08-13T13:28:09.928Z,43.99
2023-08-13T13:30:36.433Z,44.08
2023-08-13T13:33:03.444Z,44.02
2023-08-13T13:35:30.075Z,44.52
2023-08-13T13:37:57.447Z,44.63
2023-08-13T13:40:25.916Z,43.48
2023-08-13T13:42:53.185Z,43.81
2023-08-13T13:45:20.448Z,43.37
2023-08-13T13:47:47.329Z,43.75
2023-08-13T13:50:16.994Z,43.34
2023-08-13T13:52:43.870Z,42.98
2023-08-13T13:55:10.401Z,42.48
2023-08-13T13:57:37.318Z,42.62
2023-08-13T14:00:07.908Z,43.48
2023-08-13T14:02:35.197Z,43.10
2023-08-13T14:05:02.385Z,43.81
2023-08-13T14:07:28.862Z,44.72
2023-08-13T14:09:55.360Z,44.17
2023-08-13T14:12:22.276Z,43.58
2023-08-13T14:14:48.742Z,43.81
2023-08-13T14:17:15.265Z,43.83
2023-08-13T14:19:43.098Z,43.38
2023-08-13T14:22:09.924Z,42.84
2023-08-13T14:24:36.845Z,43.10
2023-08-13T14:27:03.296Z,42.40
2023-08-13T14:29:30.379Z,42.14
2023-08-13T14:31:57.005Z,42.68
2023-08-13T14:34:23.582Z,41.54
2023-08-13T14:36:50.038Z,42.51
2023-08-13T14:39:16.857Z,41.64
2023-08-13T14:41:43.389Z,42.29
2023-08-13T14:44:10.080Z,42.10
2023-08-13T14:46:36.723Z,41.61
2023-08-13T14:49:03.301Z,42.46
2023-08-13T14:51:30.105Z,42.47
2023-08-13T14:53:57.050Z,41.28
2023-08-13T14:56:23.749Z,41.19
2023-08-13T14:58:50.965Z,40.92
2023-08-13T15:01:17.687Z,41.51
2023-08-13T15:03:44.366Z,41.51
2023-08-13T15:06:11.083Z,41.65
2023-08-13T15:08:37.827Z,42.26
2023-08-13T15:11:04.429Z,41.63
2023-08-13T15:13:31.037Z,41.12
2023-08-13T15:15:57.796Z,41.07
2023-08-13T15:18:24.410Z,40.82
2023-08-13T15:20:51.354Z,40.79
2023-08-13T15:23:19.114Z,40.57
2023-08-13T15:28:19.986Z,41.49
2023-08-13T15:30:46.521Z,41.44
2023-08-13T15:33:13.118Z,41.07
2023-08-13T15:35:51.562Z,41.42
2023-08-13T15:38:20.354Z,41.24
2023-08-13T15:40:49.001Z,41.17
2023-08-13T15:43:15.495Z,42.31
2023-08-13T15:45:41.991Z,43.29
2023-08-13T15:48:08.538Z,43.28
2023-08-13T15:50:35.654Z,43.12
2023-08-13T15:53:03.323Z,43.12
2023-08-13T15:55:30.059Z,43.88
2023-08-13T15:57:56.554Z,43.98
2023-08-13T16:00:23.169Z,44.01
2023-08-13T16:02:50.818Z,43.23
2023-08-13T16:05:17.548Z,43.66
2023-08-13T16:07:45.529Z,43.87
2023-08-13T16:10:12.025Z,44.18
2023-08-13T16:12:38.503Z,42.97
2023-08-13T16:15:10.996Z,43.55
2023-08-13T16:17:41.147Z,43.30
2023-08-13T16:20:12.657Z,44.48
2023-08-13T16:22:42.268Z,43.88
2023-08-13T16:25:09.931Z,44.33
2023-08-13T16:27:36.757Z,45.36
2023-08-13T16:30:04.789Z,44.81
2023-08-13T16:32:31.564Z,46.19
2023-08-13T16:34:58.120Z,46.07
2023-08-13T16:37:24.566Z,46.62
2023-08-13T16:39:51.044Z,46.39
2023-08-13T16:42:18.109Z,46.39
2023-08-13T16:44:44.891Z,46.84
2023-08-13T16:47:11.374Z,47.88
2023-08-13T16:49:37.957Z,47.44
2023-08-13T16:52:04.698Z,47.10
2023-08-13T16:54:31.092Z,46.66
2023-08-13T16:56:57.619Z,46.54
2023-08-13T16:59:24.162Z,45.79
2023-08-13T17:01:50.650Z,46.71
2023-08-13T17:04:17.158Z,46.92
2023-08-13T17:06:43.847Z,47.09
2023-08-13T17:09:10.543Z,47.08
2023-08-13T17:11:36.980Z,47.51
2023-08-13T17:14:03.545Z,46.96
2023-08-13T17:16:30.119Z,47.60
2023-08-13T17:18:56.654Z,46.71
2023-08-13T17:21:23.123Z,47.92
2023-08-13T17:23:49.539Z,47.69
2023-08-13T17:26:16.039Z,47.69
2023-08-13T17:28:42.759Z,47.37
2023-08-13T17:31:09.253Z,47.77
2023-08-13T17:33:35.760Z,48.01
2023-08-13T17:36:02.289Z,48.76
2023-08-13T17:38:28.760Z,48.61
2023-08-13T17:40:55.294Z,48.79
2023-08-13T17:43:21.876Z,48.66
2023-08-13T17:45:48.428Z,48.34
2023-08-13T17:48:16.496Z,48.59
2023-08-13T17:50:44.475Z,47.60
2023-08-13T17:53:12.641Z,48.68
2023-08-13T17:55:39.092Z,48.95
2023-08-13T17:58:05.563Z,48.47
2023-08-13T18:00:32.064Z,48.66
2023-08-13T18:02:58.655Z,49.63
2023-08-13T18:05:25.561Z,48.89
2023-08-13T18:07:58.370Z,48.75
2023-08-13T18:10:31.025Z,49.21
2023-08-13T18:12:57.561Z,49.99
2023-08-13T18:15:24.513Z,50.96
2023-08-13T18:17:51.284Z,51.14
2023-08-13T18:20:18.268Z,51.97
2023-08-13T18:22:45.041Z,52.14
2023-08-13T18:25:12.748Z,52.98
2023-08-13T18:27:41.081Z,53.26
2023-08-13T18:30:08.227Z,54.23
2023-08-13T18:32:34.828Z,54.62
2023-08-13T18:35:01.429Z,55.69
2023-08-13T18:37:27.921Z,56.17
2023-08-13T18:39:58.078Z,57.48
2023-08-13T18:42:24.641Z,57.64
2023-08-13T18:44:51.321Z,57.86
2023-08-13T18:47:17.847Z,59.07
2023-08-13T18:49:44.368Z,59.93
2023-08-13T18:52:10.995Z,60.65
2023-08-13T18:54:37.463Z,60.88
2023-08-13T18:57:04.076Z,62.16
2023-08-13T18:59:30.854Z,62.37
2023-08-13T19:01:57.601Z,63.06
2023-08-13T19:04:24.131Z,63.52
2023-08-13T19:06:50.642Z,63.99
2023-08-13T19:09:17.087Z,65.44
2023-08-13T19:11:43.684Z,66.85
2023-08-13T19:14:11.489Z,67.01
2023-08-13T19:16:38.650Z,67.45
2023-08-13T19:19:05.931Z,68.44
2023-08-13T19:21:32.627Z,68.97
2023-08-13T19:23:59.098Z,69.53
2023-08-13T19:26:26.091Z,70.26
2023-08-13T19:28:53.222Z,71.13
2023-08-13T19:31:19.762Z,71.54
2023-08-13T19:33:46.216Z,72.32
2023-08-13T19:36:13.761Z,72.40
2023-08-13T19:38:40.731Z,73.16
2023-08-13T19:41:07.364Z,73.98
2023-08-13T19:43:34.048Z,74.08
2023-08-13T19:46:00.825Z,75.07
2023-08-13T19:48:27.316Z,75.96
2023-08-13T19:50:54.456Z,76.28
2023-08-13T19:53:21.680Z,76.88
2023-08-13T19:55:50.497Z,76.92
2023-08-13T19:58:17.859Z,77.21
2023-08-13T20:00:44.526Z,78.11
2023-08-13T20:03:11.594Z,78.58
2023-08-13T20:05:38.167Z,79.57
2023-08-13T20:08:05.211Z,80.04
2023-08-13T20:10:32.941Z,80.41
2023-08-13T20:12:59.929Z,81.55
2023-08-13T20:15:27.096Z,82.17
2023-08-13T20:17:56.927Z,83.21
2023-08-13T20:20:23.433Z,82.64
2023-08-13T20:22:49.975Z,83.31
2023-08-13T20:25:17.048Z,83.84
2023-08-13T20:27:43.490Z,84.18
2023-08-13T20:30:10.368Z,84.81
2023-08-13T20:32:37.322Z,85.74
2023-08-13T20:35:04.514Z,85.17
2023-08-13T20:37:31.490Z,85.42
2023-08-13T20:39:58.788Z,85.93
2023-08-13T20:42:26.249Z,86.27
2023-08-13T20:44:52.894Z,86.29
2023-08-13T20:47:19.370Z,86.56
2023-08-13T20:49:46.047Z,87.89
2023-08-13T20:52:12.620Z,88.24
2023-08-13T20:54:39.076Z,88.42
2023-08-13T20:57:05.806Z,89.11
2023-08-13T20:59:32.275Z,89.70
2023-08-13T21:01:58.721Z,89.74
2023-08-13T21:04:25.213Z,90.04
2023-08-13T21:06:51.728Z,89.96
2023-08-13T21:09:18.274Z,89.86
2023-08-13T21:11:45.010Z,90.18
2023-08-13T21:14:11.501Z,91.16
2023-08-13T21:16:37.987Z,91.01
2023-08-13T21:19:04.452Z,91.27
2023-08-13T21:21:30.918Z,92.34
2023-08-13T21:23:57.440Z,91.77
2023-08-13T21:26:25.169Z,92.42
2023-08-13T21:28:51.991Z,92.41
2023-08-13T21:31:18.615Z,92.20
2023-08-13T21:33:45.069Z,92.76
2023-08-13T21:36:11.581Z,92.65
2023-08-13T21:38:38.066Z,92.91
2023-08-13T21:41:04.861Z,92.88
2023-08-13T21:43:31.326Z,93.03
2023-08-13T21:45:57.787Z,93.15
2023-08-13T21:48:24.254Z,93.39
2023-08-13T21:50:50.704Z,93.47
2023-08-13T21:53:17.216Z,93.62
2023-08-13T21:55:43.851Z,93.83
2023-08-13T21:58:10.347Z,93.64
2023-08-13T22:00:36.831Z,94.31
2023-08-13T22:03:04.230Z,94.30
2023-08-13T22:05:31.797Z,94.04
2023-08-13T22:07:58.235Z,94.21
2023-08-13T22:10:24.689Z,94.50
2023-08-13T22:12:51.128Z,94.72
2023-08-13T22:15:17.605Z,94.50
2023-08-13T22:17:44.094Z,94.77
2023-08-13T22:20:10.778Z,95.09
2023-08-13T22:22:37.276Z,95.42
2023-08-13T22:25:05.243Z,95.44
2023-08-13T22:27:31.829Z,95.30
2023-08-13T22:29:58.386Z,95.72
2023-08-13T22:32:25.103Z,95.11
2023-08-13T22:34:52.194Z,95.32
2023-08-13T22:37:18.731Z,95.37
2023-08-13T22:39:45.170Z,95.55
2023-08-13T22:42:11.652Z,95.75
2023-08-13T22:44:38.140Z,95.90
2023-08-13T22:47:04.844Z,96.26
2023-08-13T22:49:32.609Z,96.59
2023-08-13T22:51:59.205Z,97.08
2023-08-13T22:54:25.960Z,97.17
2023-08-13T22:56:52.563Z,97.38
2023-08-13T22:59:19.079Z,97.25
2023-08-13T23:01:45.649Z,96.65
2023-08-13T23:04:12.662Z,96.45
2023-08-13T23:06:39.309Z,96.81
2023-08-13T23:09:07.423Z,97.03
2023-08-13T23:11:33.944Z,97.32
2023-08-13T23:14:00.591Z,97.73
2023-08-13T23:16:27.240Z,97.62
2023-08-13T23:18:53.689Z,97.73
2023-08-13T23:21:20.144Z,97.34
2023-08-13T23:23:46.606Z,97.64
2023-08-13T23:26:13.132Z,97.68
2023-08-13T23:28:40.926Z,98.01
2023-08-13T23:31:07.464Z,97.28
2023-08-13T23:33:33.993Z,97.61
2023-08-13T23:36:00.427Z,97.24
2023-08-13T23:38:26.924Z,97.31
2023-08-13T23:40:53.406Z,97.59
2023-08-13T23:43:19.851Z,97.66
2023-08-13T23:45:48.531Z,97.61
2023-08-13T23:48:15.239Z,97.54
2023-08-13T23:50:54.060Z,97.23
2023-08-13T23:53:22.060Z,96.43
2023-08-13T23:55:48.523Z,96.88
2023-08-13T23:58:15.064Z,97.59
